sensor_id;sensor_type;location;lat;lon;timestamp;temperature;humidity
29241;DHT22;16268;49.880;8.648;2022-09-12T00:01:45;15.20;99.90
29241;DHT22;16268;49.880;8.648;2022-09-12T00:04:11;15.20;99.90
29241;DHT22;16268;49.880;8.648;2022-09-12T00:06:37;15.20;99.90
29241;DHT22;16268;49.880;8.648;2022-09-12T00:09:08;15.30;99.90
29241;DHT22;16268;49.880;8.648;2022-09-12T00:11:35;15.30;99.90
29241;DHT22;16268;49.880;8.648;2022-09-12T00:14:02;15.40;99.90
29241;DHT22;16268;49.880;8.648;2022-09-12T00:16:30;15.40;99.90
29241;DHT22;16268;49.880;8.648;2022-09-12T00:18:56;15.50;99.90
29241;DHT22;16268;49.880;8.648;2022-09-12T00:21:22;15.50;99.90
29241;DHT22;16268;49.880;8.648;2022-09-12T00:23:48;15.50;99.90
29241;DHT22;16268;49.880;8.648;2022-09-12T00:26:15;15.50;99.90
29241;DHT22;16268;49.880;8.648;2022-09-12T00:28:42;15.50;99.90
29241;DHT22;16268;49.880;8.648;2022-09-12T00:31:18;15.60;99.90
29241;DHT22;16268;49.880;8.648;2022-09-12T00:33:44;15.60;99.90
29241;DHT22;16268;49.880;8.648;2022-09-12T00:36:17;15.60;99.90
29241;DHT22;16268;49.880;8.648;2022-09-12T00:38:43;15.50;99.90
29241;DHT22;16268;49.880;8.648;2022-09-12T00:43:48;15.50;99.90
29241;DHT22;16268;49.880;8.648;2022-09-12T00:49:27;15.20;99.90
29241;DHT22;16268;49.880;8.648;2022-09-12T00:54:23;15.10;99.90
29241;DHT22;16268;49.880;8.648;2022-09-12T00:56:52;15.00;99.90
29241;DHT22;16268;49.880;8.648;2022-09-12T00:59:26;15.00;99.90
29241;DHT22;16268;49.880;8.648;2022-09-12T01:01:54;15.10;99.90
29241;DHT22;16268;49.880;8.648;2022-09-12T01:04:21;15.20;99.90
29241;DHT22;16268;49.880;8.648;2022-09-12T01:06:49;15.20;99.90
29241;DHT22;16268;49.880;8.648;2022-09-12T01:09:17;15.10;99.90
29241;DHT22;16268;49.880;8.648;2022-09-12T01:11:44;15.20;99.90
29241;DHT22;16268;49.880;8.648;2022-09-12T01:14:12;15.20;99.90
29241;DHT22;16268;49.880;8.648;2022-09-12T01:16:38;15.20;99.90
29241;DHT22;16268;49.880;8.648;2022-09-12T01:22:17;15.10;99.90
29241;DHT22;16268;49.880;8.648;2022-09-12T01:25:30;15.00;99.90
29241;DHT22;16268;49.880;8.648;2022-09-12T01:27:47;15.00;99.90
29241;DHT22;16268;49.880;8.648;2022-09-12T01:41:23;14.60;99.90
29241;DHT22;16268;49.880;8.648;2022-09-12T01:43:53;14.60;99.90
29241;DHT22;16268;49.880;8.648;2022-09-12T01:46:44;14.60;99.90
29241;DHT22;16268;49.880;8.648;2022-09-12T01:49:19;14.60;99.90
29241;DHT22;16268;49.880;8.648;2022-09-12T01:51:57;14.40;99.90
29241;DHT22;16268;49.880;8.648;2022-09-12T01:54:32;14.40;99.90
29241;DHT22;16268;49.880;8.648;2022-09-12T01:57:02;14.20;99.90
29241;DHT22;16268;49.880;8.648;2022-09-12T01:59:36;14.40;99.90
29241;DHT22;16268;49.880;8.648;2022-09-12T02:02:10;14.40;99.90
29241;DHT22;16268;49.880;8.648;2022-09-12T02:04:45;14.30;99.90
29241;DHT22;16268;49.880;8.648;2022-09-12T02:07:19;14.30;99.90
29241;DHT22;16268;49.880;8.648;2022-09-12T02:10:00;14.40;99.90
29241;DHT22;16268;49.880;8.648;2022-09-12T02:12:34;14.40;99.90
29241;DHT22;16268;49.880;8.648;2022-09-12T02:15:03;14.40;99.90
29241;DHT22;16268;49.880;8.648;2022-09-12T02:17:36;14.50;99.90
29241;DHT22;16268;49.880;8.648;2022-09-12T02:20:32;14.40;99.90
29241;DHT22;16268;49.880;8.648;2022-09-12T02:22:56;14.20;99.90
29241;DHT22;16268;49.880;8.648;2022-09-12T02:25:23;14.20;99.90
29241;DHT22;16268;49.880;8.648;2022-09-12T02:28:04;14.30;99.90
29241;DHT22;16268;49.880;8.648;2022-09-12T02:30:40;14.40;99.90
29241;DHT22;16268;49.880;8.648;2022-09-12T02:33:22;14.40;99.90
29241;DHT22;16268;49.880;8.648;2022-09-12T02:36:03;14.40;99.90
29241;DHT22;16268;49.880;8.648;2022-09-12T02:38:43;14.40;99.90
29241;DHT22;16268;49.880;8.648;2022-09-12T02:41:11;14.40;99.90
29241;DHT22;16268;49.880;8.648;2022-09-12T02:43:38;14.40;99.90
29241;DHT22;16268;49.880;8.648;2022-09-12T02:46:07;14.40;99.90
29241;DHT22;16268;49.880;8.648;2022-09-12T02:48:36;14.40;99.90
29241;DHT22;16268;49.880;8.648;2022-09-12T02:51:03;14.40;99.90
29241;DHT22;16268;49.880;8.648;2022-09-12T02:53:29;14.30;99.90
29241;DHT22;16268;49.880;8.648;2022-09-12T02:55:55;14.30;99.90
29241;DHT22;16268;49.880;8.648;2022-09-12T02:58:25;14.20;99.90
29241;DHT22;16268;49.880;8.648;2022-09-12T03:01:40;14.10;99.90
29241;DHT22;16268;49.880;8.648;2022-09-12T03:04:18;14.00;99.90
29241;DHT22;16268;49.880;8.648;2022-09-12T03:06:55;14.10;99.90
29241;DHT22;16268;49.880;8.648;2022-09-12T03:13:17;14.10;99.90
29241;DHT22;16268;49.880;8.648;2022-09-12T03:18:17;14.00;99.90
29241;DHT22;16268;49.880;8.648;2022-09-12T03:21:02;14.00;99.90
29241;DHT22;16268;49.880;8.648;2022-09-12T03:23:30;14.00;99.90
29241;DHT22;16268;49.880;8.648;2022-09-12T03:26:11;14.10;99.90
29241;DHT22;16268;49.880;8.648;2022-09-12T03:28:38;14.10;99.90
29241;DHT22;16268;49.880;8.648;2022-09-12T03:31:15;14.00;99.90
29241;DHT22;16268;49.880;8.648;2022-09-12T03:33:41;14.00;99.90
29241;DHT22;16268;49.880;8.648;2022-09-12T03:36:18;14.00;99.90
29241;DHT22;16268;49.880;8.648;2022-09-12T03:38:44;14.10;99.90
29241;DHT22;16268;49.880;8.648;2022-09-12T03:41:10;14.10;99.90
29241;DHT22;16268;49.880;8.648;2022-09-12T03:43:35;14.00;99.90
29241;DHT22;16268;49.880;8.648;2022-09-12T03:46:01;14.00;99.90
29241;DHT22;16268;49.880;8.648;2022-09-12T03:48:26;14.00;99.90
29241;DHT22;16268;49.880;8.648;2022-09-12T03:50:52;14.00;99.90
29241;DHT22;16268;49.880;8.648;2022-09-12T03:53:18;13.90;99.90
29241;DHT22;16268;49.880;8.648;2022-09-12T03:55:43;13.90;99.90
29241;DHT22;16268;49.880;8.648;2022-09-12T03:58:09;13.90;99.90
29241;DHT22;16268;49.880;8.648;2022-09-12T04:00:34;14.00;99.90
29241;DHT22;16268;49.880;8.648;2022-09-12T04:03:00;13.80;99.90
29241;DHT22;16268;49.880;8.648;2022-09-12T04:05:25;13.70;99.90
29241;DHT22;16268;49.880;8.648;2022-09-12T04:07:51;13.50;99.90
29241;DHT22;16268;49.880;8.648;2022-09-12T04:10:17;13.50;99.90
29241;DHT22;16268;49.880;8.648;2022-09-12T04:12:43;13.60;99.90
29241;DHT22;16268;49.880;8.648;2022-09-12T04:15:09;13.60;99.90
29241;DHT22;16268;49.880;8.648;2022-09-12T04:17:34;13.60;99.90
29241;DHT22;16268;49.880;8.648;2022-09-12T04:20:01;13.50;99.90
29241;DHT22;16268;49.880;8.648;2022-09-12T04:22:27;13.50;99.90
29241;DHT22;16268;49.880;8.648;2022-09-12T04:24:52;13.60;99.90
29241;DHT22;16268;49.880;8.648;2022-09-12T04:27:18;13.60;99.90
29241;DHT22;16268;49.880;8.648;2022-09-12T04:29:43;13.60;99.90
29241;DHT22;16268;49.880;8.648;2022-09-12T04:32:09;13.70;99.90
29241;DHT22;16268;49.880;8.648;2022-09-12T04:34:34;13.70;99.90
29241;DHT22;16268;49.880;8.648;2022-09-12T04:37:00;13.80;99.90
29241;DHT22;16268;49.880;8.648;2022-09-12T04:39:25;13.80;99.90
29241;DHT22;16268;49.880;8.648;2022-09-12T04:41:51;13.70;99.90
29241;DHT22;16268;49.880;8.648;2022-09-12T04:44:16;13.60;99.90
29241;DHT22;16268;49.880;8.648;2022-09-12T04:46:45;13.60;99.90
29241;DHT22;16268;49.880;8.648;2022-09-12T04:49:11;13.70;99.90
29241;DHT22;16268;49.880;8.648;2022-09-12T04:51:39;13.60;99.90
29241;DHT22;16268;49.880;8.648;2022-09-12T04:54:12;13.60;99.90
29241;DHT22;16268;49.880;8.648;2022-09-12T04:56:39;13.70;99.90
29241;DHT22;16268;49.880;8.648;2022-09-12T04:59:06;13.60;99.90
29241;DHT22;16268;49.880;8.648;2022-09-12T05:01:33;13.60;99.90
29241;DHT22;16268;49.880;8.648;2022-09-12T05:03:59;13.60;99.90
29241;DHT22;16268;49.880;8.648;2022-09-12T05:06:30;13.60;99.90
29241;DHT22;16268;49.880;8.648;2022-09-12T05:08:56;13.60;99.90
29241;DHT22;16268;49.880;8.648;2022-09-12T05:11:25;13.60;99.90
29241;DHT22;16268;49.880;8.648;2022-09-12T05:13:51;13.60;99.90
29241;DHT22;16268;49.880;8.648;2022-09-12T05:16:18;13.50;99.90
29241;DHT22;16268;49.880;8.648;2022-09-12T05:18:45;13.60;99.90
29241;DHT22;16268;49.880;8.648;2022-09-12T05:21:12;13.50;99.90
29241;DHT22;16268;49.880;8.648;2022-09-12T05:23:38;13.50;99.90
29241;DHT22;16268;49.880;8.648;2022-09-12T05:26:05;13.50;99.90
29241;DHT22;16268;49.880;8.648;2022-09-12T05:28:34;13.60;99.90
29241;DHT22;16268;49.880;8.648;2022-09-12T05:31:11;13.60;99.90
29241;DHT22;16268;49.880;8.648;2022-09-12T05:33:39;13.70;99.90
29241;DHT22;16268;49.880;8.648;2022-09-12T05:36:08;13.70;99.90
29241;DHT22;16268;49.880;8.648;2022-09-12T05:38:34;13.70;99.90
29241;DHT22;16268;49.880;8.648;2022-09-12T05:41:08;13.80;99.90
29241;DHT22;16268;49.880;8.648;2022-09-12T05:43:34;13.90;99.90
29241;DHT22;16268;49.880;8.648;2022-09-12T05:46:09;14.00;99.90
29241;DHT22;16268;49.880;8.648;2022-09-12T05:48:36;14.60;99.90
29241;DHT22;16268;49.880;8.648;2022-09-12T05:51:04;15.30;99.90
29241;DHT22;16268;49.880;8.648;2022-09-12T05:53:34;16.20;99.90
29241;DHT22;16268;49.880;8.648;2022-09-12T05:56:09;16.60;99.90
29241;DHT22;16268;49.880;8.648;2022-09-12T05:58:37;17.40;99.90
29241;DHT22;16268;49.880;8.648;2022-09-12T06:01:06;17.90;99.90
29241;DHT22;16268;49.880;8.648;2022-09-12T06:03:36;18.60;99.90
29241;DHT22;16268;49.880;8.648;2022-09-12T06:06:04;18.90;99.90
29241;DHT22;16268;49.880;8.648;2022-09-12T06:08:34;18.60;99.90
29241;DHT22;16268;49.880;8.648;2022-09-12T06:11:04;18.40;99.90
29241;DHT22;16268;49.880;8.648;2022-09-12T06:13:34;18.60;99.90
29241;DHT22;16268;49.880;8.648;2022-09-12T06:16:25;18.60;99.90
29241;DHT22;16268;49.880;8.648;2022-09-12T06:18:56;19.30;99.90
29241;DHT22;16268;49.880;8.648;2022-09-12T06:21:22;19.90;99.90
29241;DHT22;16268;49.880;8.648;2022-09-12T06:23:48;20.30;99.90
29241;DHT22;16268;49.880;8.648;2022-09-12T06:26:15;20.20;99.90
29241;DHT22;16268;49.880;8.648;2022-09-12T06:28:43;20.60;99.90
29241;DHT22;16268;49.880;8.648;2022-09-12T06:31:14;20.20;99.90
29241;DHT22;16268;49.880;8.648;2022-09-12T06:33:41;19.60;99.90
29241;DHT22;16268;49.880;8.648;2022-09-12T06:36:16;19.30;99.90
29241;DHT22;16268;49.880;8.648;2022-09-12T06:38:42;19.30;99.90
29241;DHT22;16268;49.880;8.648;2022-09-12T06:41:10;19.90;99.90
29241;DHT22;16268;49.880;8.648;2022-09-12T06:43:37;19.90;99.90
29241;DHT22;16268;49.880;8.648;2022-09-12T06:46:03;20.40;99.90
29241;DHT22;16268;49.880;8.648;2022-09-12T06:48:29;21.20;99.90
29241;DHT22;16268;49.880;8.648;2022-09-12T06:51:08;21.00;99.90
29241;DHT22;16268;49.880;8.648;2022-09-12T06:53:34;20.50;99.90
29241;DHT22;16268;49.880;8.648;2022-09-12T06:56:22;21.20;99.90
29241;DHT22;16268;49.880;8.648;2022-09-12T06:58:49;21.60;99.90
29241;DHT22;16268;49.880;8.648;2022-09-12T07:03:48;20.80;99.90
29241;DHT22;16268;49.880;8.648;2022-09-12T07:06:15;21.00;99.90
29241;DHT22;16268;49.880;8.648;2022-09-12T07:08:41;20.70;99.90
29241;DHT22;16268;49.880;8.648;2022-09-12T07:11:10;20.90;99.90
29241;DHT22;16268;49.880;8.648;2022-09-12T07:13:37;20.90;99.90
29241;DHT22;16268;49.880;8.648;2022-09-12T07:16:04;21.20;99.90
29241;DHT22;16268;49.880;8.648;2022-09-12T07:18:30;21.70;99.90
29241;DHT22;16268;49.880;8.648;2022-09-12T07:20:59;21.90;99.90
29241;DHT22;16268;49.880;8.648;2022-09-12T07:23:25;22.10;99.90
29241;DHT22;16268;49.880;8.648;2022-09-12T07:25:54;22.60;99.90
29241;DHT22;16268;49.880;8.648;2022-09-12T07:28:24;23.10;99.90
29241;DHT22;16268;49.880;8.648;2022-09-12T07:30:50;22.90;99.90
29241;DHT22;16268;49.880;8.648;2022-09-12T07:33:19;23.30;99.90
29241;DHT22;16268;49.880;8.648;2022-09-12T07:35:45;23.50;99.90
29241;DHT22;16268;49.880;8.648;2022-09-12T07:38:10;23.10;99.90
29241;DHT22;16268;49.880;8.648;2022-09-12T07:40:36;23.60;99.90
29241;DHT22;16268;49.880;8.648;2022-09-12T07:43:01;23.00;99.90
29241;DHT22;16268;49.880;8.648;2022-09-12T07:45:27;22.90;99.90
29241;DHT22;16268;49.880;8.648;2022-09-12T07:47:53;22.90;99.90
29241;DHT22;16268;49.880;8.648;2022-09-12T07:50:19;23.70;99.90
29241;DHT22;16268;49.880;8.648;2022-09-12T07:52:44;22.90;99.90
29241;DHT22;16268;49.880;8.648;2022-09-12T07:55:10;23.10;99.90
29241;DHT22;16268;49.880;8.648;2022-09-12T07:57:35;23.50;99.90
29241;DHT22;16268;49.880;8.648;2022-09-12T08:00:01;24.20;99.90
29241;DHT22;16268;49.880;8.648;2022-09-12T08:02:27;24.40;99.90
29241;DHT22;16268;49.880;8.648;2022-09-12T08:04:53;24.10;99.90
29241;DHT22;16268;49.880;8.648;2022-09-12T08:07:19;24.30;99.90
29241;DHT22;16268;49.880;8.648;2022-09-12T08:09:44;24.40;99.90
29241;DHT22;16268;49.880;8.648;2022-09-12T08:12:10;24.70;99.90
29241;DHT22;16268;49.880;8.648;2022-09-12T08:14:36;25.00;99.90
29241;DHT22;16268;49.880;8.648;2022-09-12T08:17:01;24.90;99.90
29241;DHT22;16268;49.880;8.648;2022-09-12T08:19:27;23.80;99.90
29241;DHT22;16268;49.880;8.648;2022-09-12T08:21:52;23.40;99.90
29241;DHT22;16268;49.880;8.648;2022-09-12T08:24:18;23.50;99.90
29241;DHT22;16268;49.880;8.648;2022-09-12T08:26:43;24.20;99.90
29241;DHT22;16268;49.880;8.648;2022-09-12T08:29:09;23.90;99.90
29241;DHT22;16268;49.880;8.648;2022-09-12T08:31:34;24.00;99.90
29241;DHT22;16268;49.880;8.648;2022-09-12T08:34:04;24.10;99.90
29241;DHT22;16268;49.880;8.648;2022-09-12T08:36:30;24.40;99.90
29241;DHT22;16268;49.880;8.648;2022-09-12T08:39:01;25.00;99.90
29241;DHT22;16268;49.880;8.648;2022-09-12T08:41:31;24.70;99.90
29241;DHT22;16268;49.880;8.648;2022-09-12T08:44:06;25.30;99.90
29241;DHT22;16268;49.880;8.648;2022-09-12T08:47:09;25.60;99.90
29241;DHT22;16268;49.880;8.648;2022-09-12T08:49:44;25.50;99.90
29241;DHT22;16268;49.880;8.648;2022-09-12T08:52:18;26.40;99.90
29241;DHT22;16268;49.880;8.648;2022-09-12T08:54:45;26.70;99.90
29241;DHT22;16268;49.880;8.648;2022-09-12T08:57:13;26.90;99.90
29241;DHT22;16268;49.880;8.648;2022-09-12T08:59:41;26.30;99.90
29241;DHT22;16268;49.880;8.648;2022-09-12T09:05:06;26.90;99.90
29241;DHT22;16268;49.880;8.648;2022-09-12T09:10:42;27.80;98.80
29241;DHT22;16268;49.880;8.648;2022-09-12T09:13:39;28.40;96.40
29241;DHT22;16268;49.880;8.648;2022-09-12T09:16:30;27.90;96.40
29241;DHT22;16268;49.880;8.648;2022-09-12T09:19:07;27.50;96.70
29241;DHT22;16268;49.880;8.648;2022-09-12T09:21:41;27.50;96.90
29241;DHT22;16268;49.880;8.648;2022-09-12T09:24:11;27.10;97.10
29241;DHT22;16268;49.880;8.648;2022-09-12T09:27:00;27.10;96.70
29241;DHT22;16268;49.880;8.648;2022-09-12T09:29:28;26.10;97.30
29241;DHT22;16268;49.880;8.648;2022-09-12T09:31:57;26.40;96.50
29241;DHT22;16268;49.880;8.648;2022-09-12T09:34:28;26.80;96.60
29241;DHT22;16268;49.880;8.648;2022-09-12T09:40:04;27.40;94.90
29241;DHT22;16268;49.880;8.648;2022-09-12T09:42:59;27.70;92.70
29241;DHT22;16268;49.880;8.648;2022-09-12T09:45:27;27.50;90.60
29241;DHT22;16268;49.880;8.648;2022-09-12T09:48:14;27.20;92.50
29241;DHT22;16268;49.880;8.648;2022-09-12T09:50:41;26.80;91.80
29241;DHT22;16268;49.880;8.648;2022-09-12T09:53:23;26.90;92.00
29241;DHT22;16268;49.880;8.648;2022-09-12T09:55:50;26.60;92.70
29241;DHT22;16268;49.880;8.648;2022-09-12T09:58:31;26.90;93.00
29241;DHT22;16268;49.880;8.648;2022-09-12T10:01:02;27.10;92.00
29241;DHT22;16268;49.880;8.648;2022-09-12T10:03:31;27.10;92.90
29241;DHT22;16268;49.880;8.648;2022-09-12T10:06:24;26.50;92.50
29241;DHT22;16268;49.880;8.648;2022-09-12T10:08:48;25.80;93.40
29241;DHT22;16268;49.880;8.648;2022-09-12T10:11:22;25.60;94.10
29241;DHT22;16268;49.880;8.648;2022-09-12T10:13:56;25.80;95.30
29241;DHT22;16268;49.880;8.648;2022-09-12T10:16:23;26.20;92.90
29241;DHT22;16268;49.880;8.648;2022-09-12T10:18:50;26.40;92.10
29241;DHT22;16268;49.880;8.648;2022-09-12T10:21:21;26.70;92.10
29241;DHT22;16268;49.880;8.648;2022-09-12T10:23:52;26.60;91.40
29241;DHT22;16268;49.880;8.648;2022-09-12T10:26:24;26.80;91.50
29241;DHT22;16268;49.880;8.648;2022-09-12T10:28:52;26.80;91.40
29241;DHT22;16268;49.880;8.648;2022-09-12T10:31:35;26.90;92.00
29241;DHT22;16268;49.880;8.648;2022-09-12T10:34:26;26.80;91.70
29241;DHT22;16268;49.880;8.648;2022-09-12T10:37:04;27.30;92.10
29241;DHT22;16268;49.880;8.648;2022-09-12T10:39:31;27.00;91.20
29241;DHT22;16268;49.880;8.648;2022-09-12T10:41:58;27.00;92.80
29241;DHT22;16268;49.880;8.648;2022-09-12T10:44:26;26.80;91.80
29241;DHT22;16268;49.880;8.648;2022-09-12T10:46:53;26.80;92.30
29241;DHT22;16268;49.880;8.648;2022-09-12T10:49:23;27.20;92.40
29241;DHT22;16268;49.880;8.648;2022-09-12T10:51:51;27.50;91.50
29241;DHT22;16268;49.880;8.648;2022-09-12T10:54:18;27.50;90.70
29241;DHT22;16268;49.880;8.648;2022-09-12T10:56:59;27.20;92.10
29241;DHT22;16268;49.880;8.648;2022-09-12T10:59:32;26.80;92.80
29241;DHT22;16268;49.880;8.648;2022-09-12T11:02:23;26.70;93.50
29241;DHT22;16268;49.880;8.648;2022-09-12T11:05:21;27.00;93.10
29241;DHT22;16268;49.880;8.648;2022-09-12T11:08:01;27.10;92.90
29241;DHT22;16268;49.880;8.648;2022-09-12T11:10:56;26.90;94.70
29241;DHT22;16268;49.880;8.648;2022-09-12T11:16:15;26.70;92.70
29241;DHT22;16268;49.880;8.648;2022-09-12T11:22:06;26.30;95.50
29241;DHT22;16268;49.880;8.648;2022-09-12T11:27:37;26.50;94.10
29241;DHT22;16268;49.880;8.648;2022-09-12T11:30:11;26.40;93.90
29241;DHT22;16268;49.880;8.648;2022-09-12T11:32:51;26.20;94.10
29241;DHT22;16268;49.880;8.648;2022-09-12T11:35:28;26.20;94.30
29241;DHT22;16268;49.880;8.648;2022-09-12T11:46:39;26.00;95.60
29241;DHT22;16268;49.880;8.648;2022-09-12T11:49:20;26.40;95.00
29241;DHT22;16268;49.880;8.648;2022-09-12T11:55:01;26.80;94.70
29241;DHT22;16268;49.880;8.648;2022-09-12T12:00:21;27.20;94.10
29241;DHT22;16268;49.880;8.648;2022-09-12T12:03:07;27.50;92.90
29241;DHT22;16268;49.880;8.648;2022-09-12T12:08:04;27.50;91.50
29241;DHT22;16268;49.880;8.648;2022-09-12T12:10:39;27.00;92.30
29241;DHT22;16268;49.880;8.648;2022-09-12T12:15:39;25.90;93.90
29241;DHT22;16268;49.880;8.648;2022-09-12T12:18:18;25.50;95.30
29241;DHT22;16268;49.880;8.648;2022-09-12T12:20:44;25.20;95.90
29241;DHT22;16268;49.880;8.648;2022-09-12T12:23:25;25.40;96.00
29241;DHT22;16268;49.880;8.648;2022-09-12T12:25:58;25.60;95.80
29241;DHT22;16268;49.880;8.648;2022-09-12T12:31:15;25.40;95.20
29241;DHT22;16268;49.880;8.648;2022-09-12T12:36:28;25.70;94.40
29241;DHT22;16268;49.880;8.648;2022-09-12T12:38:53;25.90;94.90
29241;DHT22;16268;49.880;8.648;2022-09-12T12:43:53;25.60;95.90
29241;DHT22;16268;49.880;8.648;2022-09-12T12:46:21;25.70;95.90
29241;DHT22;16268;49.880;8.648;2022-09-12T12:51:35;25.70;94.50
29241;DHT22;16268;49.880;8.648;2022-09-12T12:54:32;25.80;94.50
29241;DHT22;16268;49.880;8.648;2022-09-12T12:59:52;26.00;95.20
29241;DHT22;16268;49.880;8.648;2022-09-12T13:02:23;26.00;94.50
29241;DHT22;16268;49.880;8.648;2022-09-12T13:04:50;26.00;94.00
29241;DHT22;16268;49.880;8.648;2022-09-12T13:07:26;26.00;94.00
29241;DHT22;16268;49.880;8.648;2022-09-12T13:09:52;25.60;94.00
29241;DHT22;16268;49.880;8.648;2022-09-12T13:12:23;25.30;94.30
29241;DHT22;16268;49.880;8.648;2022-09-12T13:14:59;25.50;94.50
29241;DHT22;16268;49.880;8.648;2022-09-12T13:17:37;25.70;94.20
29241;DHT22;16268;49.880;8.648;2022-09-12T13:20:26;25.70;94.10
29241;DHT22;16268;49.880;8.648;2022-09-12T13:22:54;25.90;94.20
29241;DHT22;16268;49.880;8.648;2022-09-12T13:25:26;25.70;94.10
29241;DHT22;16268;49.880;8.648;2022-09-12T13:28:13;25.70;94.00
29241;DHT22;16268;49.880;8.648;2022-09-12T13:31:20;25.50;95.10
29241;DHT22;16268;49.880;8.648;2022-09-12T13:33:51;25.20;94.00
29241;DHT22;16268;49.880;8.648;2022-09-12T13:39:28;25.20;94.40
29241;DHT22;16268;49.880;8.648;2022-09-12T13:44:26;25.20;94.50
29241;DHT22;16268;49.880;8.648;2022-09-12T13:46:52;25.20;94.20
29241;DHT22;16268;49.880;8.648;2022-09-12T13:49:34;25.30;94.50
29241;DHT22;16268;49.880;8.648;2022-09-12T13:52:05;25.20;94.20
29241;DHT22;16268;49.880;8.648;2022-09-12T13:54:33;25.10;94.80
29241;DHT22;16268;49.880;8.648;2022-09-12T13:57:02;25.10;94.70
29241;DHT22;16268;49.880;8.648;2022-09-12T13:59:40;25.20;94.70
29241;DHT22;16268;49.880;8.648;2022-09-12T14:02:20;25.30;94.40
29241;DHT22;16268;49.880;8.648;2022-09-12T14:04:47;25.40;94.00
29241;DHT22;16268;49.880;8.648;2022-09-12T14:07:44;25.50;94.20
29241;DHT22;16268;49.880;8.648;2022-09-12T14:10:20;25.60;93.80
29241;DHT22;16268;49.880;8.648;2022-09-12T14:12:46;25.20;93.40
29241;DHT22;16268;49.880;8.648;2022-09-12T14:15:26;25.20;94.10
29241;DHT22;16268;49.880;8.648;2022-09-12T14:17:55;25.30;93.60
29241;DHT22;16268;49.880;8.648;2022-09-12T14:20:29;25.20;93.60
29241;DHT22;16268;49.880;8.648;2022-09-12T14:23:06;25.10;94.00
29241;DHT22;16268;49.880;8.648;2022-09-12T14:25:39;25.10;94.30
29241;DHT22;16268;49.880;8.648;2022-09-12T14:28:06;25.10;94.80
29241;DHT22;16268;49.880;8.648;2022-09-12T14:30:36;25.30;94.20
29241;DHT22;16268;49.880;8.648;2022-09-12T14:33:17;25.50;94.00
29241;DHT22;16268;49.880;8.648;2022-09-12T14:35:48;25.50;93.70
29241;DHT22;16268;49.880;8.648;2022-09-12T14:40:43;25.30;93.50
29241;DHT22;16268;49.880;8.648;2022-09-12T14:43:24;25.40;93.80
29241;DHT22;16268;49.880;8.648;2022-09-12T14:46:16;25.50;93.60
29241;DHT22;16268;49.880;8.648;2022-09-12T14:48:52;25.50;93.40
29241;DHT22;16268;49.880;8.648;2022-09-12T14:51:24;25.40;93.30
29241;DHT22;16268;49.880;8.648;2022-09-12T14:53:50;25.10;93.50
29241;DHT22;16268;49.880;8.648;2022-09-12T14:56:15;25.00;93.60
29241;DHT22;16268;49.880;8.648;2022-09-12T14:58:42;24.90;93.90
29241;DHT22;16268;49.880;8.648;2022-09-12T15:03:55;25.00;94.20
29241;DHT22;16268;49.880;8.648;2022-09-12T15:06:22;25.00;93.70
29241;DHT22;16268;49.880;8.648;2022-09-12T15:08:47;24.90;93.80
29241;DHT22;16268;49.880;8.648;2022-09-12T15:11:13;24.80;93.90
29241;DHT22;16268;49.880;8.648;2022-09-12T15:13:40;24.80;93.80
29241;DHT22;16268;49.880;8.648;2022-09-12T15:16:08;24.80;93.90
29241;DHT22;16268;49.880;8.648;2022-09-12T15:18:34;24.90;94.00
29241;DHT22;16268;49.880;8.648;2022-09-12T15:21:02;24.80;94.00
29241;DHT22;16268;49.880;8.648;2022-09-12T15:23:30;24.70;94.30
29241;DHT22;16268;49.880;8.648;2022-09-12T15:25:57;24.70;94.20
29241;DHT22;16268;49.880;8.648;2022-09-12T15:28:23;24.60;94.40
29241;DHT22;16268;49.880;8.648;2022-09-12T15:30:52;24.70;94.70
29241;DHT22;16268;49.880;8.648;2022-09-12T15:33:19;24.60;93.80
29241;DHT22;16268;49.880;8.648;2022-09-12T15:35:45;24.70;93.40
29241;DHT22;16268;49.880;8.648;2022-09-12T15:38:11;24.70;93.20
29241;DHT22;16268;49.880;8.648;2022-09-12T15:40:37;24.70;92.30
29241;DHT22;16268;49.880;8.648;2022-09-12T15:43:03;24.80;92.30
29241;DHT22;16268;49.880;8.648;2022-09-12T15:45:31;24.80;92.50
29241;DHT22;16268;49.880;8.648;2022-09-12T15:47:57;24.70;92.80
29241;DHT22;16268;49.880;8.648;2022-09-12T15:50:23;24.70;93.20
29241;DHT22;16268;49.880;8.648;2022-09-12T15:52:49;24.60;93.60
29241;DHT22;16268;49.880;8.648;2022-09-12T15:57:44;24.70;94.10
29241;DHT22;16268;49.880;8.648;2022-09-12T16:00:11;24.70;93.90
29241;DHT22;16268;49.880;8.648;2022-09-12T16:02:36;24.70;94.20
29241;DHT22;16268;49.880;8.648;2022-09-12T16:05:03;24.70;94.10
29241;DHT22;16268;49.880;8.648;2022-09-12T16:07:29;24.70;94.20
29241;DHT22;16268;49.880;8.648;2022-09-12T16:09:54;24.60;94.20
29241;DHT22;16268;49.880;8.648;2022-09-12T16:12:20;24.50;94.40
29241;DHT22;16268;49.880;8.648;2022-09-12T16:14:46;24.40;94.50
29241;DHT22;16268;49.880;8.648;2022-09-12T16:17:11;24.40;94.60
29241;DHT22;16268;49.880;8.648;2022-09-12T16:19:37;24.40;94.20
29241;DHT22;16268;49.880;8.648;2022-09-12T16:22:02;24.30;93.90
29241;DHT22;16268;49.880;8.648;2022-09-12T16:24:28;24.30;94.40
29241;DHT22;16268;49.880;8.648;2022-09-12T16:26:53;24.30;94.70
29241;DHT22;16268;49.880;8.648;2022-09-12T16:29:19;24.30;94.40
29241;DHT22;16268;49.880;8.648;2022-09-12T16:31:44;24.30;94.70
29241;DHT22;16268;49.880;8.648;2022-09-12T16:34:10;24.20;94.40
29241;DHT22;16268;49.880;8.648;2022-09-12T16:36:36;24.20;94.90
29241;DHT22;16268;49.880;8.648;2022-09-12T16:39:02;24.30;95.00
29241;DHT22;16268;49.880;8.648;2022-09-12T16:41:27;24.10;95.10
29241;DHT22;16268;49.880;8.648;2022-09-12T16:43:53;24.20;94.80
29241;DHT22;16268;49.880;8.648;2022-09-12T16:46:24;24.10;95.40
29241;DHT22;16268;49.880;8.648;2022-09-12T16:48:52;24.00;95.60
29241;DHT22;16268;49.880;8.648;2022-09-12T16:51:20;23.90;95.70
29241;DHT22;16268;49.880;8.648;2022-09-12T16:53:47;23.90;95.90
29241;DHT22;16268;49.880;8.648;2022-09-12T16:56:13;23.80;96.10
29241;DHT22;16268;49.880;8.648;2022-09-12T16:58:40;23.80;96.50
29241;DHT22;16268;49.880;8.648;2022-09-12T17:01:12;23.80;97.10
29241;DHT22;16268;49.880;8.648;2022-09-12T17:03:38;23.70;96.30
29241;DHT22;16268;49.880;8.648;2022-09-12T17:06:15;23.60;96.80
29241;DHT22;16268;49.880;8.648;2022-09-12T17:08:45;23.60;97.70
29241;DHT22;16268;49.880;8.648;2022-09-12T17:11:20;23.60;98.00
29241;DHT22;16268;49.880;8.648;2022-09-12T17:13:47;23.50;98.70
29241;DHT22;16268;49.880;8.648;2022-09-12T17:16:13;23.50;99.20
29241;DHT22;16268;49.880;8.648;2022-09-12T17:18:39;23.40;99.60
29241;DHT22;16268;49.880;8.648;2022-09-12T17:21:09;23.40;99.10
29241;DHT22;16268;49.880;8.648;2022-09-12T17:23:35;23.30;99.90
29241;DHT22;16268;49.880;8.648;2022-09-12T17:26:01;23.30;99.50
29241;DHT22;16268;49.880;8.648;2022-09-12T17:28:27;23.20;99.90